Metar z połowy godziny Komunikat METAR ze strony awiacja.imgw.pl Metar G30 EPKK METAR EPKK 230730Z 07007KT 6000 SCT006 OVC009 M05/M06 Q1005 =